sensor_id;sensor_type;location;lat;lon;timestamp;P1;durP1;ratioP1;P2;durP2;ratioP2
32838;SDS011;19182;41.820;12.808;2023-02-20T00:02:06;23.83;;;13.88;;
32838;SDS011;19182;41.820;12.808;2023-02-20T00:04:32;20.52;;;13.18;;
32838;SDS011;19182;41.820;12.808;2023-02-20T00:06:58;23.02;;;13.82;;
32838;SDS011;19182;41.820;12.808;2023-02-20T00:09:25;18.20;;;13.15;;
32838;SDS011;19182;41.820;12.808;2023-02-20T00:11:52;26.90;;;15.45;;
32838;SDS011;19182;41.820;12.808;2023-02-20T00:14:19;21.13;;;14.35;;
32838;SDS011;19182;41.820;12.808;2023-02-20T00:16:46;26.23;;;15.07;;
32838;SDS011;19182;41.820;12.808;2023-02-20T00:19:12;30.77;;;14.85;;
32838;SDS011;19182;41.820;12.808;2023-02-20T00:21:43;22.50;;;13.98;;
32838;SDS011;19182;41.820;12.808;2023-02-20T00:24:10;25.63;;;15.45;;
32838;SDS011;19182;41.820;12.808;2023-02-20T00:26:44;28.73;;;15.57;;
32838;SDS011;19182;41.820;12.808;2023-02-20T00:29:19;25.02;;;14.77;;
32838;SDS011;19182;41.820;12.808;2023-02-20T00:31:50;23.73;;;15.45;;
32838;SDS011;19182;41.820;12.808;2023-02-20T00:34:22;21.95;;;15.48;;
32838;SDS011;19182;41.820;12.808;2023-02-20T00:36:50;24.80;;;14.77;;
32838;SDS011;19182;41.820;12.808;2023-02-20T00:39:15;25.92;;;15.25;;
32838;SDS011;19182;41.820;12.808;2023-02-20T00:41:42;23.73;;;15.30;;
32838;SDS011;19182;41.820;12.808;2023-02-20T00:44:08;22.65;;;15.23;;
32838;SDS011;19182;41.820;12.808;2023-02-20T00:46:35;24.63;;;15.70;;
32838;SDS011;19182;41.820;12.808;2023-02-20T00:49:02;26.42;;;15.80;;
32838;SDS011;19182;41.820;12.808;2023-02-20T00:51:29;24.73;;;15.00;;
32838;SDS011;19182;41.820;12.808;2023-02-20T00:53:56;22.13;;;14.82;;
32838;SDS011;19182;41.820;12.808;2023-02-20T00:56:21;21.35;;;13.55;;
32838;SDS011;19182;41.820;12.808;2023-02-20T00:58:47;23.17;;;14.15;;
32838;SDS011;19182;41.820;12.808;2023-02-20T01:01:13;21.92;;;14.15;;
32838;SDS011;19182;41.820;12.808;2023-02-20T01:03:40;22.95;;;14.07;;
32838;SDS011;19182;41.820;12.808;2023-02-20T01:06:06;24.70;;;14.95;;
32838;SDS011;19182;41.820;12.808;2023-02-20T01:08:35;28.70;;;15.32;;
32838;SDS011;19182;41.820;12.808;2023-02-20T01:11:01;26.20;;;15.75;;
32838;SDS011;19182;41.820;12.808;2023-02-20T01:13:27;25.98;;;16.15;;
32838;SDS011;19182;41.820;12.808;2023-02-20T01:15:53;32.85;;;18.95;;
32838;SDS011;19182;41.820;12.808;2023-02-20T01:18:19;23.30;;;18.13;;
32838;SDS011;19182;41.820;12.808;2023-02-20T01:20:44;29.67;;;16.98;;
32838;SDS011;19182;41.820;12.808;2023-02-20T01:23:10;28.75;;;16.48;;
32838;SDS011;19182;41.820;12.808;2023-02-20T01:25:38;25.58;;;15.52;;
32838;SDS011;19182;41.820;12.808;2023-02-20T01:28:06;28.38;;;14.80;;
32838;SDS011;19182;41.820;12.808;2023-02-20T01:30:32;21.55;;;14.27;;
32838;SDS011;19182;41.820;12.808;2023-02-20T01:32:58;29.45;;;14.43;;
32838;SDS011;19182;41.820;12.808;2023-02-20T01:35:26;23.67;;;14.07;;
32838;SDS011;19182;41.820;12.808;2023-02-20T01:37:56;24.70;;;14.00;;
32838;SDS011;19182;41.820;12.808;2023-02-20T01:40:24;26.58;;;13.13;;
32838;SDS011;19182;41.820;12.808;2023-02-20T01:42:51;25.33;;;14.30;;
32838;SDS011;19182;41.820;12.808;2023-02-20T01:47:57;30.73;;;14.07;;
32838;SDS011;19182;41.820;12.808;2023-02-20T01:50:25;23.13;;;14.10;;
32838;SDS011;19182;41.820;12.808;2023-02-20T01:52:55;25.85;;;13.40;;
32838;SDS011;19182;41.820;12.808;2023-02-20T01:55:26;22.08;;;13.23;;
32838;SDS011;19182;41.820;12.808;2023-02-20T01:58:02;24.08;;;13.45;;
32838;SDS011;19182;41.820;12.808;2023-02-20T02:00:49;23.20;;;13.68;;
32838;SDS011;19182;41.820;12.808;2023-02-20T02:03:19;26.27;;;13.93;;
32838;SDS011;19182;41.820;12.808;2023-02-20T02:05:52;25.20;;;13.68;;
32838;SDS011;19182;41.820;12.808;2023-02-20T02:08:25;18.77;;;12.27;;
32838;SDS011;19182;41.820;12.808;2023-02-20T02:10:56;25.10;;;11.63;;
32838;SDS011;19182;41.820;12.808;2023-02-20T02:13:29;21.90;;;12.07;;
32838;SDS011;19182;41.820;12.808;2023-02-20T02:16:04;19.60;;;12.20;;
32838;SDS011;19182;41.820;12.808;2023-02-20T02:19:03;21.15;;;11.35;;
32838;SDS011;19182;41.820;12.808;2023-02-20T02:24:21;25.42;;;13.02;;
32838;SDS011;19182;41.820;12.808;2023-02-20T02:27:12;23.45;;;13.43;;
32838;SDS011;19182;41.820;12.808;2023-02-20T02:38:46;32.78;;;16.35;;
32838;SDS011;19182;41.820;12.808;2023-02-20T02:46:49;32.58;;;17.50;;
32838;SDS011;19182;41.820;12.808;2023-02-20T02:49:24;40.15;;;19.38;;
32838;SDS011;19182;41.820;12.808;2023-02-20T02:52:04;41.40;;;20.17;;
32838;SDS011;19182;41.820;12.808;2023-02-20T02:54:31;32.70;;;19.13;;
32838;SDS011;19182;41.820;12.808;2023-02-20T02:59:44;38.67;;;19.40;;
32838;SDS011;19182;41.820;12.808;2023-02-20T03:02:14;36.08;;;19.92;;
32838;SDS011;19182;41.820;12.808;2023-02-20T03:04:44;39.55;;;19.35;;
32838;SDS011;19182;41.820;12.808;2023-02-20T03:07:14;37.33;;;19.80;;
32838;SDS011;19182;41.820;12.808;2023-02-20T03:09:43;32.45;;;18.75;;
32838;SDS011;19182;41.820;12.808;2023-02-20T03:12:12;38.10;;;19.00;;
32838;SDS011;19182;41.820;12.808;2023-02-20T03:15:01;33.55;;;18.45;;
32838;SDS011;19182;41.820;12.808;2023-02-20T03:20:23;30.80;;;18.30;;
32838;SDS011;19182;41.820;12.808;2023-02-20T03:22:59;40.92;;;18.60;;
32838;SDS011;19182;41.820;12.808;2023-02-20T03:25:35;33.75;;;19.40;;
32838;SDS011;19182;41.820;12.808;2023-02-20T03:28:43;33.20;;;17.90;;
32838;SDS011;19182;41.820;12.808;2023-02-20T03:31:20;34.78;;;18.98;;
32838;SDS011;19182;41.820;12.808;2023-02-20T03:33:59;29.92;;;17.55;;
32838;SDS011;19182;41.820;12.808;2023-02-20T03:36:45;32.05;;;18.40;;
32838;SDS011;19182;41.820;12.808;2023-02-20T03:42:21;31.58;;;18.15;;
32838;SDS011;19182;41.820;12.808;2023-02-20T03:45:09;29.00;;;18.05;;
32838;SDS011;19182;41.820;12.808;2023-02-20T03:47:40;37.35;;;20.55;;
32838;SDS011;19182;41.820;12.808;2023-02-20T03:50:10;32.20;;;19.05;;
32838;SDS011;19182;41.820;12.808;2023-02-20T03:52:57;35.78;;;19.45;;
32838;SDS011;19182;41.820;12.808;2023-02-20T03:55:23;32.65;;;19.30;;
32838;SDS011;19182;41.820;12.808;2023-02-20T03:57:51;33.03;;;19.38;;
32838;SDS011;19182;41.820;12.808;2023-02-20T04:00:23;32.83;;;19.77;;
32838;SDS011;19182;41.820;12.808;2023-02-20T04:02:55;31.05;;;19.52;;
32838;SDS011;19182;41.820;12.808;2023-02-20T04:05:28;33.22;;;19.20;;
32838;SDS011;19182;41.820;12.808;2023-02-20T04:10:35;33.92;;;18.92;;
32838;SDS011;19182;41.820;12.808;2023-02-20T04:13:06;33.10;;;19.65;;
32838;SDS011;19182;41.820;12.808;2023-02-20T04:15:32;41.78;;;20.90;;
32838;SDS011;19182;41.820;12.808;2023-02-20T04:18:00;27.23;;;18.15;;
32838;SDS011;19182;41.820;12.808;2023-02-20T04:20:38;31.55;;;17.48;;
32838;SDS011;19182;41.820;12.808;2023-02-20T04:23:23;31.42;;;19.65;;
32838;SDS011;19182;41.820;12.808;2023-02-20T04:26:09;40.85;;;20.95;;
32838;SDS011;19182;41.820;12.808;2023-02-20T04:28:39;35.85;;;20.13;;
32838;SDS011;19182;41.820;12.808;2023-02-20T04:31:05;38.25;;;19.80;;
32838;SDS011;19182;41.820;12.808;2023-02-20T04:33:34;32.35;;;18.77;;
32838;SDS011;19182;41.820;12.808;2023-02-20T04:35:59;32.40;;;19.55;;
32838;SDS011;19182;41.820;12.808;2023-02-20T04:38:26;37.83;;;20.13;;
32838;SDS011;19182;41.820;12.808;2023-02-20T04:40:51;27.25;;;18.02;;
32838;SDS011;19182;41.820;12.808;2023-02-20T04:43:17;34.47;;;19.02;;
32838;SDS011;19182;41.820;12.808;2023-02-20T04:45:44;37.70;;;19.73;;
32838;SDS011;19182;41.820;12.808;2023-02-20T04:48:10;28.88;;;16.50;;
32838;SDS011;19182;41.820;12.808;2023-02-20T04:50:37;31.73;;;17.55;;
32838;SDS011;19182;41.820;12.808;2023-02-20T04:53:08;33.00;;;18.17;;
32838;SDS011;19182;41.820;12.808;2023-02-20T04:55:33;39.60;;;17.83;;
32838;SDS011;19182;41.820;12.808;2023-02-20T04:58:00;35.40;;;18.13;;
32838;SDS011;19182;41.820;12.808;2023-02-20T05:00:26;37.17;;;19.17;;
32838;SDS011;19182;41.820;12.808;2023-02-20T05:02:52;37.20;;;20.98;;
32838;SDS011;19182;41.820;12.808;2023-02-20T05:05:22;36.53;;;21.95;;
32838;SDS011;19182;41.820;12.808;2023-02-20T05:07:56;34.58;;;21.15;;
32838;SDS011;19182;41.820;12.808;2023-02-20T05:10:23;40.75;;;20.08;;
32838;SDS011;19182;41.820;12.808;2023-02-20T05:12:50;41.80;;;21.27;;
32838;SDS011;19182;41.820;12.808;2023-02-20T05:15:17;31.73;;;19.90;;
32838;SDS011;19182;41.820;12.808;2023-02-20T05:17:45;38.47;;;20.27;;
32838;SDS011;19182;41.820;12.808;2023-02-20T05:20:11;36.92;;;20.20;;
32838;SDS011;19182;41.820;12.808;2023-02-20T05:22:37;39.40;;;20.25;;
32838;SDS011;19182;41.820;12.808;2023-02-20T05:25:03;41.00;;;20.55;;
32838;SDS011;19182;41.820;12.808;2023-02-20T05:27:29;31.63;;;19.30;;
32838;SDS011;19182;41.820;12.808;2023-02-20T05:29:57;37.88;;;21.38;;
32838;SDS011;19182;41.820;12.808;2023-02-20T05:32:25;40.55;;;21.00;;
32838;SDS011;19182;41.820;12.808;2023-02-20T05:34:52;40.67;;;20.58;;
32838;SDS011;19182;41.820;12.808;2023-02-20T05:37:18;33.92;;;19.52;;
32838;SDS011;19182;41.820;12.808;2023-02-20T05:39:45;35.50;;;20.35;;
32838;SDS011;19182;41.820;12.808;2023-02-20T05:42:12;33.78;;;20.73;;
32838;SDS011;19182;41.820;12.808;2023-02-20T05:44:39;31.25;;;18.90;;
32838;SDS011;19182;41.820;12.808;2023-02-20T05:47:05;35.78;;;20.45;;
32838;SDS011;19182;41.820;12.808;2023-02-20T05:49:32;36.97;;;19.77;;
32838;SDS011;19182;41.820;12.808;2023-02-20T05:51:59;35.03;;;19.48;;
32838;SDS011;19182;41.820;12.808;2023-02-20T05:54:25;36.08;;;20.13;;
32838;SDS011;19182;41.820;12.808;2023-02-20T05:56:51;40.83;;;21.25;;
32838;SDS011;19182;41.820;12.808;2023-02-20T05:59:21;38.28;;;20.90;;
32838;SDS011;19182;41.820;12.808;2023-02-20T06:01:48;37.90;;;20.52;;
32838;SDS011;19182;41.820;12.808;2023-02-20T06:04:19;43.58;;;21.30;;
32838;SDS011;19182;41.820;12.808;2023-02-20T06:06:45;46.35;;;21.98;;
32838;SDS011;19182;41.820;12.808;2023-02-20T06:09:11;42.83;;;20.75;;
32838;SDS011;19182;41.820;12.808;2023-02-20T06:11:41;40.00;;;20.83;;
32838;SDS011;19182;41.820;12.808;2023-02-20T06:14:14;38.70;;;19.52;;
32838;SDS011;19182;41.820;12.808;2023-02-20T06:16:43;49.47;;;22.02;;
32838;SDS011;19182;41.820;12.808;2023-02-20T06:19:17;46.88;;;22.25;;
32838;SDS011;19182;41.820;12.808;2023-02-20T06:21:46;51.72;;;22.48;;
32838;SDS011;19182;41.820;12.808;2023-02-20T06:24:14;64.15;;;23.17;;
32838;SDS011;19182;41.820;12.808;2023-02-20T06:26:41;71.18;;;25.88;;
32838;SDS011;19182;41.820;12.808;2023-02-20T06:29:07;62.42;;;24.60;;
32838;SDS011;19182;41.820;12.808;2023-02-20T06:31:33;79.18;;;24.95;;
32838;SDS011;19182;41.820;12.808;2023-02-20T06:33:59;76.07;;;23.80;;
32838;SDS011;19182;41.820;12.808;2023-02-20T06:36:26;85.20;;;28.00;;
32838;SDS011;19182;41.820;12.808;2023-02-20T06:38:55;61.72;;;23.92;;
32838;SDS011;19182;41.820;12.808;2023-02-20T06:41:21;83.28;;;24.63;;
32838;SDS011;19182;41.820;12.808;2023-02-20T06:43:47;51.90;;;22.95;;
32838;SDS011;19182;41.820;12.808;2023-02-20T06:46:14;60.10;;;25.08;;
32838;SDS011;19182;41.820;12.808;2023-02-20T06:48:44;55.90;;;22.98;;
32838;SDS011;19182;41.820;12.808;2023-02-20T06:51:09;62.28;;;22.98;;
32838;SDS011;19182;41.820;12.808;2023-02-20T06:53:35;70.75;;;24.15;;
32838;SDS011;19182;41.820;12.808;2023-02-20T06:56:05;66.43;;;25.70;;
32838;SDS011;19182;41.820;12.808;2023-02-20T06:58:35;55.35;;;22.70;;
32838;SDS011;19182;41.820;12.808;2023-02-20T07:01:01;49.47;;;22.77;;
32838;SDS011;19182;41.820;12.808;2023-02-20T07:03:28;43.95;;;21.98;;
32838;SDS011;19182;41.820;12.808;2023-02-20T07:05:55;45.22;;;20.75;;
32838;SDS011;19182;41.820;12.808;2023-02-20T07:08:21;39.95;;;22.02;;
32838;SDS011;19182;41.820;12.808;2023-02-20T07:10:47;41.05;;;19.35;;
32838;SDS011;19182;41.820;12.808;2023-02-20T07:13:14;41.75;;;21.85;;
32838;SDS011;19182;41.820;12.808;2023-02-20T07:15:40;38.20;;;20.83;;
32838;SDS011;19182;41.820;12.808;2023-02-20T07:18:05;32.35;;;19.45;;
32838;SDS011;19182;41.820;12.808;2023-02-20T07:20:31;32.88;;;18.65;;
32838;SDS011;19182;41.820;12.808;2023-02-20T07:22:57;30.15;;;18.42;;
32838;SDS011;19182;41.820;12.808;2023-02-20T07:25:24;33.03;;;19.67;;
32838;SDS011;19182;41.820;12.808;2023-02-20T07:27:49;31.45;;;18.60;;
32838;SDS011;19182;41.820;12.808;2023-02-20T07:30:15;31.17;;;17.55;;
32838;SDS011;19182;41.820;12.808;2023-02-20T07:32:41;31.77;;;19.90;;
32838;SDS011;19182;41.820;12.808;2023-02-20T07:35:07;34.67;;;20.58;;
32838;SDS011;19182;41.820;12.808;2023-02-20T07:37:34;29.85;;;17.48;;
32838;SDS011;19182;41.820;12.808;2023-02-20T07:40:01;34.47;;;19.90;;
32838;SDS011;19182;41.820;12.808;2023-02-20T07:42:27;37.67;;;20.38;;
32838;SDS011;19182;41.820;12.808;2023-02-20T07:44:53;38.42;;;20.48;;
32838;SDS011;19182;41.820;12.808;2023-02-20T07:47:18;36.63;;;20.98;;
32838;SDS011;19182;41.820;12.808;2023-02-20T07:49:45;38.53;;;22.10;;
32838;SDS011;19182;41.820;12.808;2023-02-20T07:54:46;31.80;;;20.13;;
32838;SDS011;19182;41.820;12.808;2023-02-20T07:57:13;33.35;;;19.58;;
32838;SDS011;19182;41.820;12.808;2023-02-20T07:59:39;34.00;;;19.77;;
32838;SDS011;19182;41.820;12.808;2023-02-20T08:02:05;30.50;;;18.25;;
32838;SDS011;19182;41.820;12.808;2023-02-20T08:04:31;29.30;;;18.63;;
32838;SDS011;19182;41.820;12.808;2023-02-20T08:06:57;26.40;;;17.25;;
32838;SDS011;19182;41.820;12.808;2023-02-20T08:09:23;26.17;;;17.25;;
32838;SDS011;19182;41.820;12.808;2023-02-20T08:11:48;22.80;;;15.52;;
32838;SDS011;19182;41.820;12.808;2023-02-20T08:14:16;26.73;;;17.65;;
32838;SDS011;19182;41.820;12.808;2023-02-20T08:16:42;22.27;;;14.68;;
32838;SDS011;19182;41.820;12.808;2023-02-20T08:19:07;19.40;;;13.77;;
32838;SDS011;19182;41.820;12.808;2023-02-20T08:21:33;19.95;;;12.93;;
32838;SDS011;19182;41.820;12.808;2023-02-20T08:23:59;20.33;;;14.02;;
32838;SDS011;19182;41.820;12.808;2023-02-20T08:26:25;19.00;;;13.55;;
32838;SDS011;19182;41.820;12.808;2023-02-20T08:28:51;16.63;;;12.77;;
32838;SDS011;19182;41.820;12.808;2023-02-20T08:31:17;18.35;;;13.77;;
32838;SDS011;19182;41.820;12.808;2023-02-20T08:33:43;17.48;;;13.30;;
32838;SDS011;19182;41.820;12.808;2023-02-20T08:36:09;16.70;;;13.20;;
32838;SDS011;19182;41.820;12.808;2023-02-20T08:38:36;19.27;;;13.75;;
32838;SDS011;19182;41.820;12.808;2023-02-20T08:41:06;16.58;;;13.75;;
32838;SDS011;19182;41.820;12.808;2023-02-20T08:43:34;16.42;;;12.70;;
32838;SDS011;19182;41.820;12.808;2023-02-20T08:46:00;16.15;;;12.85;;
32838;SDS011;19182;41.820;12.808;2023-02-20T08:48:26;16.05;;;12.27;;
32838;SDS011;19182;41.820;12.808;2023-02-20T08:50:53;15.43;;;12.13;;
32838;SDS011;19182;41.820;12.808;2023-02-20T08:53:22;14.90;;;12.35;;
32838;SDS011;19182;41.820;12.808;2023-02-20T08:55:49;15.15;;;12.60;;
32838;SDS011;19182;41.820;12.808;2023-02-20T08:58:21;15.55;;;12.77;;
32838;SDS011;19182;41.820;12.808;2023-02-20T09:00:48;13.77;;;11.52;;
32838;SDS011;19182;41.820;12.808;2023-02-20T09:03:14;15.07;;;12.70;;
32838;SDS011;19182;41.820;12.808;2023-02-20T09:05:40;16.55;;;12.80;;
32838;SDS011;19182;41.820;12.808;2023-02-20T09:08:06;16.73;;;12.88;;
32838;SDS011;19182;41.820;12.808;2023-02-20T09:10:32;14.63;;;13.13;;
32838;SDS011;19182;41.820;12.808;2023-02-20T09:12:58;19.27;;;12.43;;
32838;SDS011;19182;41.820;12.808;2023-02-20T09:15:24;17.73;;;12.32;;
32838;SDS011;19182;41.820;12.808;2023-02-20T09:17:50;15.77;;;11.88;;
32838;SDS011;19182;41.820;12.808;2023-02-20T09:20:17;14.02;;;11.07;;
32838;SDS011;19182;41.820;12.808;2023-02-20T09:22:48;14.55;;;11.35;;
32838;SDS011;19182;41.820;12.808;2023-02-20T09:25:24;13.25;;;10.48;;
32838;SDS011;19182;41.820;12.808;2023-02-20T09:27:50;15.55;;;10.70;;
32838;SDS011;19182;41.820;12.808;2023-02-20T09:30:17;13.68;;;11.10;;
32838;SDS011;19182;41.820;12.808;2023-02-20T09:32:49;17.70;;;9.90;;
32838;SDS011;19182;41.820;12.808;2023-02-20T09:35:16;13.35;;;10.35;;
32838;SDS011;19182;41.820;12.808;2023-02-20T09:37:44;12.15;;;9.88;;
32838;SDS011;19182;41.820;12.808;2023-02-20T09:40:11;12.18;;;9.20;;
32838;SDS011;19182;41.820;12.808;2023-02-20T09:42:52;11.70;;;8.65;;
32838;SDS011;19182;41.820;12.808;2023-02-20T09:45:30;14.07;;;9.35;;
32838;SDS011;19182;41.820;12.808;2023-02-20T09:53:17;12.85;;;8.80;;
32838;SDS011;19182;41.820;12.808;2023-02-20T09:55:54;12.05;;;7.85;;
32838;SDS011;19182;41.820;12.808;2023-02-20T09:58:25;8.77;;;7.88;;
32838;SDS011;19182;41.820;12.808;2023-02-20T10:00:59;8.73;;;7.13;;
32838;SDS011;19182;41.820;12.808;2023-02-20T10:06:16;11.75;;;7.82;;
32838;SDS011;19182;41.820;12.808;2023-02-20T10:08:46;10.30;;;7.88;;
32838;SDS011;19182;41.820;12.808;2023-02-20T10:11:15;9.20;;;7.90;;
32838;SDS011;19182;41.820;12.808;2023-02-20T10:17:05;9.27;;;7.55;;
32838;SDS011;19182;41.820;12.808;2023-02-20T10:22:29;10.48;;;7.97;;
32838;SDS011;19182;41.820;12.808;2023-02-20T10:25:19;8.80;;;7.18;;
32838;SDS011;19182;41.820;12.808;2023-02-20T10:30:26;9.85;;;7.03;;
32838;SDS011;19182;41.820;12.808;2023-02-20T10:33:14;9.45;;;8.30;;
32838;SDS011;19182;41.820;12.808;2023-02-20T10:36:14;8.85;;;7.32;;
32838;SDS011;19182;41.820;12.808;2023-02-20T10:38:51;11.32;;;7.10;;
32838;SDS011;19182;41.820;12.808;2023-02-20T10:41:30;11.15;;;7.47;;
32838;SDS011;19182;41.820;12.808;2023-02-20T10:44:20;9.77;;;7.55;;
32838;SDS011;19182;41.820;12.808;2023-02-20T10:46:57;12.27;;;8.50;;
32838;SDS011;19182;41.820;12.808;2023-02-20T10:52:30;11.57;;;8.48;;
32838;SDS011;19182;41.820;12.808;2023-02-20T10:55:11;12.70;;;8.52;;
32838;SDS011;19182;41.820;12.808;2023-02-20T10:57:52;11.25;;;8.93;;
32838;SDS011;19182;41.820;12.808;2023-02-20T11:00:42;11.10;;;8.40;;
32838;SDS011;19182;41.820;12.808;2023-02-20T11:03:15;12.45;;;9.23;;
32838;SDS011;19182;41.820;12.808;2023-02-20T11:05:47;10.25;;;8.80;;
32838;SDS011;19182;41.820;12.808;2023-02-20T11:08:20;12.55;;;9.00;;
32838;SDS011;19182;41.820;12.808;2023-02-20T11:10:47;11.02;;;9.18;;
32838;SDS011;19182;41.820;12.808;2023-02-20T11:13:16;13.35;;;8.98;;
32838;SDS011;19182;41.820;12.808;2023-02-20T11:15:47;10.90;;;8.23;;
32838;SDS011;19182;41.820;12.808;2023-02-20T11:21:51;15.00;;;9.27;;
32838;SDS011;19182;41.820;12.808;2023-02-20T11:27:03;17.33;;;10.57;;
32838;SDS011;19182;41.820;12.808;2023-02-20T11:29:37;17.17;;;10.18;;
32838;SDS011;19182;41.820;12.808;2023-02-20T11:32:26;13.15;;;10.88;;
32838;SDS011;19182;41.820;12.808;2023-02-20T11:37:41;19.30;;;11.60;;
32838;SDS011;19182;41.820;12.808;2023-02-20T11:40:26;14.95;;;10.07;;
32838;SDS011;19182;41.820;12.808;2023-02-20T11:42:54;19.17;;;11.82;;
32838;SDS011;19182;41.820;12.808;2023-02-20T11:45:43;17.42;;;10.63;;
32838;SDS011;19182;41.820;12.808;2023-02-20T11:48:17;19.25;;;10.85;;
32838;SDS011;19182;41.820;12.808;2023-02-20T11:53:22;17.33;;;11.40;;
32838;SDS011;19182;41.820;12.808;2023-02-20T11:56:05;19.27;;;12.25;;
32838;SDS011;19182;41.820;12.808;2023-02-20T11:58:39;18.95;;;11.75;;
32838;SDS011;19182;41.820;12.808;2023-02-20T12:03:58;18.30;;;12.07;;
32838;SDS011;19182;41.820;12.808;2023-02-20T12:09:06;17.30;;;10.55;;
32838;SDS011;19182;41.820;12.808;2023-02-20T12:11:38;16.88;;;10.55;;
32838;SDS011;19182;41.820;12.808;2023-02-20T12:14:12;18.67;;;10.35;;
32838;SDS011;19182;41.820;12.808;2023-02-20T12:22:26;17.52;;;10.45;;
32838;SDS011;19182;41.820;12.808;2023-02-20T12:27:56;18.75;;;10.25;;
32838;SDS011;19182;41.820;12.808;2023-02-20T12:41:49;12.82;;;9.07;;
32838;SDS011;19182;41.820;12.808;2023-02-20T12:47:20;11.40;;;8.35;;
32838;SDS011;19182;41.820;12.808;2023-02-20T12:49:59;12.73;;;8.63;;
32838;SDS011;19182;41.820;12.808;2023-02-20T12:52:30;20.63;;;8.23;;
32838;SDS011;19182;41.820;12.808;2023-02-20T12:57:43;12.48;;;9.07;;
32838;SDS011;19182;41.820;12.808;2023-02-20T13:00:33;15.88;;;9.45;;
32838;SDS011;19182;41.820;12.808;2023-02-20T13:05:50;18.75;;;11.07;;
32838;SDS011;19182;41.820;12.808;2023-02-20T13:08:19;18.50;;;10.60;;
32838;SDS011;19182;41.820;12.808;2023-02-20T13:11:00;13.85;;;9.48;;
32838;SDS011;19182;41.820;12.808;2023-02-20T13:16:32;15.73;;;12.43;;
32838;SDS011;19182;41.820;12.808;2023-02-20T13:19:22;18.27;;;10.50;;
32838;SDS011;19182;41.820;12.808;2023-02-20T13:21:52;19.73;;;11.90;;
32838;SDS011;19182;41.820;12.808;2023-02-20T13:26:46;16.52;;;11.35;;
32838;SDS011;19182;41.820;12.808;2023-02-20T13:29:17;14.82;;;10.93;;
32838;SDS011;19182;41.820;12.808;2023-02-20T13:31:48;17.17;;;11.60;;
32838;SDS011;19182;41.820;12.808;2023-02-20T13:36:42;16.45;;;9.52;;
32838;SDS011;19182;41.820;12.808;2023-02-20T13:52:31;18.42;;;9.10;;
32838;SDS011;19182;41.820;12.808;2023-02-20T13:57:55;14.68;;;9.75;;
32838;SDS011;19182;41.820;12.808;2023-02-20T14:03:16;16.00;;;9.77;;
32838;SDS011;19182;41.820;12.808;2023-02-20T14:08:34;25.50;;;14.57;;
32838;SDS011;19182;41.820;12.808;2023-02-20T14:11:06;35.20;;;26.47;;
32838;SDS011;19182;41.820;12.808;2023-02-20T14:13:34;17.67;;;12.68;;
32838;SDS011;19182;41.820;12.808;2023-02-20T14:16:01;17.77;;;10.68;;
32838;SDS011;19182;41.820;12.808;2023-02-20T14:18:28;15.05;;;9.02;;
32838;SDS011;19182;41.820;12.808;2023-02-20T14:21:18;13.50;;;9.15;;
32838;SDS011;19182;41.820;12.808;2023-02-20T14:23:47;12.85;;;9.98;;
32838;SDS011;19182;41.820;12.808;2023-02-20T14:28:48;16.90;;;10.15;;
32838;SDS011;19182;41.820;12.808;2023-02-20T14:33:59;17.83;;;11.65;;
32838;SDS011;19182;41.820;12.808;2023-02-20T14:36:41;18.70;;;11.30;;
32838;SDS011;19182;41.820;12.808;2023-02-20T14:42:09;20.08;;;10.52;;
32838;SDS011;19182;41.820;12.808;2023-02-20T14:44:39;36.53;;;23.65;;
32838;SDS011;19182;41.820;12.808;2023-02-20T14:47:08;20.88;;;12.10;;
32838;SDS011;19182;41.820;12.808;2023-02-20T14:49:37;39.78;;;20.45;;
32838;SDS011;19182;41.820;12.808;2023-02-20T14:52:06;24.27;;;15.65;;
32838;SDS011;19182;41.820;12.808;2023-02-20T14:54:42;56.10;;;34.25;;
32838;SDS011;19182;41.820;12.808;2023-02-20T14:57:22;57.90;;;33.50;;
32838;SDS011;19182;41.820;12.808;2023-02-20T14:59:48;32.35;;;19.98;;
32838;SDS011;19182;41.820;12.808;2023-02-20T15:04:46;24.58;;;15.82;;
32838;SDS011;19182;41.820;12.808;2023-02-20T15:07:20;33.35;;;19.67;;
32838;SDS011;19182;41.820;12.808;2023-02-20T15:09:49;19.65;;;13.32;;
32838;SDS011;19182;41.820;12.808;2023-02-20T15:12:21;16.35;;;10.85;;
32838;SDS011;19182;41.820;12.808;2023-02-20T15:15:09;21.50;;;13.60;;
32838;SDS011;19182;41.820;12.808;2023-02-20T15:17:39;21.65;;;15.35;;
32838;SDS011;19182;41.820;12.808;2023-02-20T15:20:16;22.80;;;14.52;;
32838;SDS011;19182;41.820;12.808;2023-02-20T15:23:07;22.70;;;14.48;;
32838;SDS011;19182;41.820;12.808;2023-02-20T15:25:47;20.95;;;13.13;;
32838;SDS011;19182;41.820;12.808;2023-02-20T15:33:50;22.92;;;12.18;;
32838;SDS011;19182;41.820;12.808;2023-02-20T15:36:22;19.52;;;12.77;;
32838;SDS011;19182;41.820;12.808;2023-02-20T15:38:51;20.23;;;11.02;;
32838;SDS011;19182;41.820;12.808;2023-02-20T15:41:17;19.23;;;11.88;;
32838;SDS011;19182;41.820;12.808;2023-02-20T15:43:45;21.60;;;12.50;;
32838;SDS011;19182;41.820;12.808;2023-02-20T15:46:13;20.40;;;13.52;;
32838;SDS011;19182;41.820;12.808;2023-02-20T15:48:39;16.92;;;11.70;;
32838;SDS011;19182;41.820;12.808;2023-02-20T15:51:05;23.58;;;12.40;;
32838;SDS011;19182;41.820;12.808;2023-02-20T15:53:33;24.98;;;15.13;;
32838;SDS011;19182;41.820;12.808;2023-02-20T15:55:59;22.58;;;13.90;;
32838;SDS011;19182;41.820;12.808;2023-02-20T15:58:27;23.73;;;12.68;;
32838;SDS011;19182;41.820;12.808;2023-02-20T16:01:06;23.48;;;14.55;;
32838;SDS011;19182;41.820;12.808;2023-02-20T16:03:33;21.38;;;13.73;;
32838;SDS011;19182;41.820;12.808;2023-02-20T16:06:00;22.55;;;14.15;;
32838;SDS011;19182;41.820;12.808;2023-02-20T16:08:26;22.73;;;13.20;;
32838;SDS011;19182;41.820;12.808;2023-02-20T16:10:52;27.25;;;14.57;;
32838;SDS011;19182;41.820;12.808;2023-02-20T16:13:30;26.95;;;14.32;;
32838;SDS011;19182;41.820;12.808;2023-02-20T16:18:54;24.92;;;15.43;;
32838;SDS011;19182;41.820;12.808;2023-02-20T16:21:20;31.30;;;18.05;;
32838;SDS011;19182;41.820;12.808;2023-02-20T16:23:46;32.50;;;17.85;;
32838;SDS011;19182;41.820;12.808;2023-02-20T16:26:17;32.92;;;19.90;;
32838;SDS011;19182;41.820;12.808;2023-02-20T16:28:47;35.85;;;19.13;;
32838;SDS011;19182;41.820;12.808;2023-02-20T16:34:26;26.23;;;18.63;;
32838;SDS011;19182;41.820;12.808;2023-02-20T16:36:54;30.45;;;18.58;;
32838;SDS011;19182;41.820;12.808;2023-02-20T16:39:20;33.10;;;18.70;;
32838;SDS011;19182;41.820;12.808;2023-02-20T16:41:47;34.05;;;17.92;;
32838;SDS011;19182;41.820;12.808;2023-02-20T16:44:23;25.85;;;16.75;;
32838;SDS011;19182;41.820;12.808;2023-02-20T16:47:04;26.50;;;15.40;;
32838;SDS011;19182;41.820;12.808;2023-02-20T16:49:35;24.45;;;15.75;;
32838;SDS011;19182;41.820;12.808;2023-02-20T16:52:16;34.08;;;16.08;;
32838;SDS011;19182;41.820;12.808;2023-02-20T16:54:53;24.70;;;15.57;;
32838;SDS011;19182;41.820;12.808;2023-02-20T16:57:25;29.35;;;15.25;;
32838;SDS011;19182;41.820;12.808;2023-02-20T16:59:55;32.15;;;16.08;;
32838;SDS011;19182;41.820;12.808;2023-02-20T17:02:28;25.02;;;15.82;;